sensor_id;sensor_type;location;lat;lon;timestamp;temperature;humidity
10459;DHT22;5277;48.722;8.736;2023-04-16T00:01:21;9.30;99.90
10459;DHT22;5277;48.722;8.736;2023-04-16T00:03:47;9.30;99.90
10459;DHT22;5277;48.722;8.736;2023-04-16T00:06:12;9.20;99.90
10459;DHT22;5277;48.722;8.736;2023-04-16T00:08:38;9.20;99.90
10459;DHT22;5277;48.722;8.736;2023-04-16T00:11:05;9.30;99.90
10459;DHT22;5277;48.722;8.736;2023-04-16T00:13:31;9.20;99.90
10459;DHT22;5277;48.722;8.736;2023-04-16T00:15:57;9.20;99.90
10459;DHT22;5277;48.722;8.736;2023-04-16T00:18:23;9.20;99.90
10459;DHT22;5277;48.722;8.736;2023-04-16T00:20:49;9.10;99.90
10459;DHT22;5277;48.722;8.736;2023-04-16T00:23:15;9.10;99.90
10459;DHT22;5277;48.722;8.736;2023-04-16T00:25:41;9.10;99.90
10459;DHT22;5277;48.722;8.736;2023-04-16T00:28:07;9.20;99.90
10459;DHT22;5277;48.722;8.736;2023-04-16T00:30:33;9.20;99.90
10459;DHT22;5277;48.722;8.736;2023-04-16T00:32:59;9.20;99.90
10459;DHT22;5277;48.722;8.736;2023-04-16T00:35:25;9.20;99.90
10459;DHT22;5277;48.722;8.736;2023-04-16T00:37:51;9.20;99.90
10459;DHT22;5277;48.722;8.736;2023-04-16T00:40:16;9.10;99.90
10459;DHT22;5277;48.722;8.736;2023-04-16T00:42:42;9.10;99.90
10459;DHT22;5277;48.722;8.736;2023-04-16T00:45:09;9.10;99.90
10459;DHT22;5277;48.722;8.736;2023-04-16T00:47:35;9.10;99.90
10459;DHT22;5277;48.722;8.736;2023-04-16T00:50:02;9.20;99.90
10459;DHT22;5277;48.722;8.736;2023-04-16T00:52:30;9.20;99.90
10459;DHT22;5277;48.722;8.736;2023-04-16T00:54:57;9.20;99.90
10459;DHT22;5277;48.722;8.736;2023-04-16T00:57:23;9.20;99.90
10459;DHT22;5277;48.722;8.736;2023-04-16T00:59:48;9.30;99.90
10459;DHT22;5277;48.722;8.736;2023-04-16T01:02:14;9.20;99.90
10459;DHT22;5277;48.722;8.736;2023-04-16T01:04:40;9.30;99.90
10459;DHT22;5277;48.722;8.736;2023-04-16T01:07:06;9.30;99.90
10459;DHT22;5277;48.722;8.736;2023-04-16T01:09:32;9.20;99.90
10459;DHT22;5277;48.722;8.736;2023-04-16T01:11:57;9.20;99.90
10459;DHT22;5277;48.722;8.736;2023-04-16T01:14:23;9.30;99.90
10459;DHT22;5277;48.722;8.736;2023-04-16T01:16:48;9.20;99.90
10459;DHT22;5277;48.722;8.736;2023-04-16T01:19:14;9.20;99.90
10459;DHT22;5277;48.722;8.736;2023-04-16T01:21:39;9.10;99.90
10459;DHT22;5277;48.722;8.736;2023-04-16T01:24:05;9.20;99.90
10459;DHT22;5277;48.722;8.736;2023-04-16T01:26:31;9.20;99.90
10459;DHT22;5277;48.722;8.736;2023-04-16T01:28:57;9.20;99.90
10459;DHT22;5277;48.722;8.736;2023-04-16T01:31:22;9.20;99.90
10459;DHT22;5277;48.722;8.736;2023-04-16T01:33:48;9.20;99.90
10459;DHT22;5277;48.722;8.736;2023-04-16T01:36:14;9.20;99.90
10459;DHT22;5277;48.722;8.736;2023-04-16T01:38:39;9.10;99.90
10459;DHT22;5277;48.722;8.736;2023-04-16T01:41:05;9.10;99.90
10459;DHT22;5277;48.722;8.736;2023-04-16T01:43:30;9.10;99.90
10459;DHT22;5277;48.722;8.736;2023-04-16T01:46:22;9.20;99.90
10459;DHT22;5277;48.722;8.736;2023-04-16T01:48:51;9.20;99.90
10459;DHT22;5277;48.722;8.736;2023-04-16T01:51:19;9.20;99.90
10459;DHT22;5277;48.722;8.736;2023-04-16T01:53:45;9.20;99.90
10459;DHT22;5277;48.722;8.736;2023-04-16T01:56:10;9.10;99.90
10459;DHT22;5277;48.722;8.736;2023-04-16T01:58:36;9.20;99.90
10459;DHT22;5277;48.722;8.736;2023-04-16T02:01:02;9.20;99.90
10459;DHT22;5277;48.722;8.736;2023-04-16T02:03:28;9.20;99.90
10459;DHT22;5277;48.722;8.736;2023-04-16T02:05:53;9.20;99.90
10459;DHT22;5277;48.722;8.736;2023-04-16T02:08:19;9.30;99.90
10459;DHT22;5277;48.722;8.736;2023-04-16T02:10:46;9.20;99.90
10459;DHT22;5277;48.722;8.736;2023-04-16T02:13:13;9.20;99.90
10459;DHT22;5277;48.722;8.736;2023-04-16T02:15:38;9.20;99.90
10459;DHT22;5277;48.722;8.736;2023-04-16T02:18:04;9.20;99.90
10459;DHT22;5277;48.722;8.736;2023-04-16T02:20:30;9.20;99.90
10459;DHT22;5277;48.722;8.736;2023-04-16T02:22:55;9.20;99.90
10459;DHT22;5277;48.722;8.736;2023-04-16T02:25:22;9.20;99.90
10459;DHT22;5277;48.722;8.736;2023-04-16T02:27:48;9.20;99.90
10459;DHT22;5277;48.722;8.736;2023-04-16T02:30:14;9.30;99.90
10459;DHT22;5277;48.722;8.736;2023-04-16T02:32:39;9.20;99.90
10459;DHT22;5277;48.722;8.736;2023-04-16T02:35:05;9.20;99.90
10459;DHT22;5277;48.722;8.736;2023-04-16T02:37:31;9.20;99.90
10459;DHT22;5277;48.722;8.736;2023-04-16T02:39:56;9.20;99.90
10459;DHT22;5277;48.722;8.736;2023-04-16T02:42:22;9.10;99.90
10459;DHT22;5277;48.722;8.736;2023-04-16T02:44:47;9.10;99.90
10459;DHT22;5277;48.722;8.736;2023-04-16T02:47:13;9.20;99.90
10459;DHT22;5277;48.722;8.736;2023-04-16T02:49:39;9.20;99.90
10459;DHT22;5277;48.722;8.736;2023-04-16T02:52:04;9.10;99.90
10459;DHT22;5277;48.722;8.736;2023-04-16T02:54:30;9.10;99.90
10459;DHT22;5277;48.722;8.736;2023-04-16T02:56:56;9.20;99.90
10459;DHT22;5277;48.722;8.736;2023-04-16T02:59:21;9.20;99.90
10459;DHT22;5277;48.722;8.736;2023-04-16T03:01:47;9.20;99.90
10459;DHT22;5277;48.722;8.736;2023-04-16T03:04:12;9.20;99.90
10459;DHT22;5277;48.722;8.736;2023-04-16T03:06:38;9.20;99.90
10459;DHT22;5277;48.722;8.736;2023-04-16T03:09:04;9.10;99.90
10459;DHT22;5277;48.722;8.736;2023-04-16T03:11:29;9.10;99.90
10459;DHT22;5277;48.722;8.736;2023-04-16T03:13:55;9.10;99.90
10459;DHT22;5277;48.722;8.736;2023-04-16T03:16:21;9.10;99.90
10459;DHT22;5277;48.722;8.736;2023-04-16T03:18:46;9.10;99.90
10459;DHT22;5277;48.722;8.736;2023-04-16T03:21:12;9.10;99.90
10459;DHT22;5277;48.722;8.736;2023-04-16T03:23:37;9.20;99.90
10459;DHT22;5277;48.722;8.736;2023-04-16T03:26:03;9.10;99.90
10459;DHT22;5277;48.722;8.736;2023-04-16T03:28:29;9.10;99.90
10459;DHT22;5277;48.722;8.736;2023-04-16T03:30:56;9.10;99.90
10459;DHT22;5277;48.722;8.736;2023-04-16T03:33:21;9.10;99.90
10459;DHT22;5277;48.722;8.736;2023-04-16T03:35:57;9.10;99.90
10459;DHT22;5277;48.722;8.736;2023-04-16T03:38:23;9.10;99.90
10459;DHT22;5277;48.722;8.736;2023-04-16T03:40:50;9.10;99.90
10459;DHT22;5277;48.722;8.736;2023-04-16T03:43:16;9.10;99.90
10459;DHT22;5277;48.722;8.736;2023-04-16T03:45:45;9.20;99.90
10459;DHT22;5277;48.722;8.736;2023-04-16T03:48:11;9.10;99.90
10459;DHT22;5277;48.722;8.736;2023-04-16T03:50:36;9.10;99.90
10459;DHT22;5277;48.722;8.736;2023-04-16T03:53:02;9.10;99.90
10459;DHT22;5277;48.722;8.736;2023-04-16T03:55:27;9.10;99.90
10459;DHT22;5277;48.722;8.736;2023-04-16T03:57:53;9.10;99.90
10459;DHT22;5277;48.722;8.736;2023-04-16T04:00:19;9.10;99.90
10459;DHT22;5277;48.722;8.736;2023-04-16T04:02:45;9.10;99.90
10459;DHT22;5277;48.722;8.736;2023-04-16T04:05:11;9.10;99.90
10459;DHT22;5277;48.722;8.736;2023-04-16T04:07:36;9.10;99.90
10459;DHT22;5277;48.722;8.736;2023-04-16T04:10:02;9.10;99.90
10459;DHT22;5277;48.722;8.736;2023-04-16T04:12:27;9.10;99.90
10459;DHT22;5277;48.722;8.736;2023-04-16T04:14:53;9.10;99.90
10459;DHT22;5277;48.722;8.736;2023-04-16T04:17:18;9.10;99.90
10459;DHT22;5277;48.722;8.736;2023-04-16T04:19:44;9.00;99.90
10459;DHT22;5277;48.722;8.736;2023-04-16T04:22:10;9.00;99.90
10459;DHT22;5277;48.722;8.736;2023-04-16T04:24:35;9.10;99.90
10459;DHT22;5277;48.722;8.736;2023-04-16T04:27:01;9.10;99.90
10459;DHT22;5277;48.722;8.736;2023-04-16T04:29:27;9.00;99.90
10459;DHT22;5277;48.722;8.736;2023-04-16T04:31:52;9.10;99.90
10459;DHT22;5277;48.722;8.736;2023-04-16T04:34:19;9.00;99.90
10459;DHT22;5277;48.722;8.736;2023-04-16T04:36:45;9.00;99.90
10459;DHT22;5277;48.722;8.736;2023-04-16T04:39:10;9.00;99.90
10459;DHT22;5277;48.722;8.736;2023-04-16T04:41:36;9.00;99.90
10459;DHT22;5277;48.722;8.736;2023-04-16T04:44:01;9.10;99.90
10459;DHT22;5277;48.722;8.736;2023-04-16T04:46:27;9.00;99.90
10459;DHT22;5277;48.722;8.736;2023-04-16T04:48:52;9.00;99.90
10459;DHT22;5277;48.722;8.736;2023-04-16T04:51:18;9.00;99.90
10459;DHT22;5277;48.722;8.736;2023-04-16T04:53:44;9.10;99.90
10459;DHT22;5277;48.722;8.736;2023-04-16T04:56:09;9.00;99.90
10459;DHT22;5277;48.722;8.736;2023-04-16T04:58:35;9.00;99.90
10459;DHT22;5277;48.722;8.736;2023-04-16T05:01:01;9.00;99.90
10459;DHT22;5277;48.722;8.736;2023-04-16T05:03:26;9.00;99.90
10459;DHT22;5277;48.722;8.736;2023-04-16T05:05:52;9.00;99.90
10459;DHT22;5277;48.722;8.736;2023-04-16T05:08:17;9.00;99.90
10459;DHT22;5277;48.722;8.736;2023-04-16T05:10:43;9.00;99.90
10459;DHT22;5277;48.722;8.736;2023-04-16T05:13:08;9.00;99.90
10459;DHT22;5277;48.722;8.736;2023-04-16T05:15:34;9.00;99.90
10459;DHT22;5277;48.722;8.736;2023-04-16T05:18:00;9.00;99.90
10459;DHT22;5277;48.722;8.736;2023-04-16T05:20:25;9.00;99.90
10459;DHT22;5277;48.722;8.736;2023-04-16T05:22:51;9.00;99.90
10459;DHT22;5277;48.722;8.736;2023-04-16T05:25:17;9.00;99.90
10459;DHT22;5277;48.722;8.736;2023-04-16T05:27:42;9.10;99.90
10459;DHT22;5277;48.722;8.736;2023-04-16T05:30:08;9.10;99.90
10459;DHT22;5277;48.722;8.736;2023-04-16T05:32:34;9.10;99.90
10459;DHT22;5277;48.722;8.736;2023-04-16T05:35:00;9.10;99.90
10459;DHT22;5277;48.722;8.736;2023-04-16T05:37:26;9.00;99.90
10459;DHT22;5277;48.722;8.736;2023-04-16T05:39:51;9.10;99.90
10459;DHT22;5277;48.722;8.736;2023-04-16T05:42:17;9.00;99.90
10459;DHT22;5277;48.722;8.736;2023-04-16T05:44:42;9.10;99.90
10459;DHT22;5277;48.722;8.736;2023-04-16T05:47:08;9.10;99.90
10459;DHT22;5277;48.722;8.736;2023-04-16T05:49:34;9.10;99.90
10459;DHT22;5277;48.722;8.736;2023-04-16T05:52:02;9.00;99.90
10459;DHT22;5277;48.722;8.736;2023-04-16T05:54:28;9.00;99.90
10459;DHT22;5277;48.722;8.736;2023-04-16T05:56:53;8.90;99.90
10459;DHT22;5277;48.722;8.736;2023-04-16T05:59:19;8.90;99.90
10459;DHT22;5277;48.722;8.736;2023-04-16T06:01:44;8.90;99.90
10459;DHT22;5277;48.722;8.736;2023-04-16T06:04:10;8.90;99.90
10459;DHT22;5277;48.722;8.736;2023-04-16T06:06:36;8.90;99.90
10459;DHT22;5277;48.722;8.736;2023-04-16T06:09:02;8.90;99.90
10459;DHT22;5277;48.722;8.736;2023-04-16T06:11:31;8.90;99.90
10459;DHT22;5277;48.722;8.736;2023-04-16T06:13:57;8.90;99.90
10459;DHT22;5277;48.722;8.736;2023-04-16T06:16:22;8.90;99.90
10459;DHT22;5277;48.722;8.736;2023-04-16T06:18:48;8.90;99.90
10459;DHT22;5277;48.722;8.736;2023-04-16T06:21:14;8.90;99.90
10459;DHT22;5277;48.722;8.736;2023-04-16T06:23:40;8.80;99.90
10459;DHT22;5277;48.722;8.736;2023-04-16T06:26:05;8.80;99.90
10459;DHT22;5277;48.722;8.736;2023-04-16T06:28:31;8.90;99.90
10459;DHT22;5277;48.722;8.736;2023-04-16T06:30:57;8.90;99.90
10459;DHT22;5277;48.722;8.736;2023-04-16T06:33:23;8.80;99.90
10459;DHT22;5277;48.722;8.736;2023-04-16T06:35:49;8.80;99.90
10459;DHT22;5277;48.722;8.736;2023-04-16T06:38:15;8.80;99.90
10459;DHT22;5277;48.722;8.736;2023-04-16T06:40:40;8.80;99.90
10459;DHT22;5277;48.722;8.736;2023-04-16T06:43:06;8.80;99.90
10459;DHT22;5277;48.722;8.736;2023-04-16T06:45:31;8.80;99.90
10459;DHT22;5277;48.722;8.736;2023-04-16T06:47:57;8.90;99.90
10459;DHT22;5277;48.722;8.736;2023-04-16T06:50:24;8.80;99.90
10459;DHT22;5277;48.722;8.736;2023-04-16T06:52:51;8.80;99.90
10459;DHT22;5277;48.722;8.736;2023-04-16T06:55:17;8.90;99.90
10459;DHT22;5277;48.722;8.736;2023-04-16T06:57:42;8.90;99.90
10459;DHT22;5277;48.722;8.736;2023-04-16T07:00:08;8.90;99.90
10459;DHT22;5277;48.722;8.736;2023-04-16T07:02:34;9.00;99.90
10459;DHT22;5277;48.722;8.736;2023-04-16T07:05:00;9.00;99.90
10459;DHT22;5277;48.722;8.736;2023-04-16T07:07:25;9.00;99.90
10459;DHT22;5277;48.722;8.736;2023-04-16T07:09:51;9.00;99.90
10459;DHT22;5277;48.722;8.736;2023-04-16T07:12:17;9.00;99.90
10459;DHT22;5277;48.722;8.736;2023-04-16T07:14:42;9.00;99.90
10459;DHT22;5277;48.722;8.736;2023-04-16T07:17:08;9.10;99.90
10459;DHT22;5277;48.722;8.736;2023-04-16T07:19:33;9.10;99.90
10459;DHT22;5277;48.722;8.736;2023-04-16T07:22:00;9.20;99.90
10459;DHT22;5277;48.722;8.736;2023-04-16T07:24:25;9.20;99.90
10459;DHT22;5277;48.722;8.736;2023-04-16T07:26:51;9.30;99.90
10459;DHT22;5277;48.722;8.736;2023-04-16T07:29:17;9.20;99.90
10459;DHT22;5277;48.722;8.736;2023-04-16T07:31:43;9.20;99.90
10459;DHT22;5277;48.722;8.736;2023-04-16T07:34:09;9.20;99.90
10459;DHT22;5277;48.722;8.736;2023-04-16T07:36:34;9.30;99.90
10459;DHT22;5277;48.722;8.736;2023-04-16T07:39:00;9.30;99.90
10459;DHT22;5277;48.722;8.736;2023-04-16T07:41:26;9.40;99.90
10459;DHT22;5277;48.722;8.736;2023-04-16T07:43:53;9.40;99.90
10459;DHT22;5277;48.722;8.736;2023-04-16T07:46:19;9.40;99.90
10459;DHT22;5277;48.722;8.736;2023-04-16T07:48:45;9.30;99.90
10459;DHT22;5277;48.722;8.736;2023-04-16T07:51:10;9.30;99.90
10459;DHT22;5277;48.722;8.736;2023-04-16T07:53:36;9.30;99.90
10459;DHT22;5277;48.722;8.736;2023-04-16T07:56:02;9.30;99.90
10459;DHT22;5277;48.722;8.736;2023-04-16T07:58:27;9.30;99.90
10459;DHT22;5277;48.722;8.736;2023-04-16T08:00:53;9.30;99.90
10459;DHT22;5277;48.722;8.736;2023-04-16T08:03:19;9.30;99.90
10459;DHT22;5277;48.722;8.736;2023-04-16T08:05:44;9.20;99.90
10459;DHT22;5277;48.722;8.736;2023-04-16T08:08:10;9.20;99.90
10459;DHT22;5277;48.722;8.736;2023-04-16T08:10:35;9.20;99.90
10459;DHT22;5277;48.722;8.736;2023-04-16T08:13:01;9.30;99.90
10459;DHT22;5277;48.722;8.736;2023-04-16T08:15:27;9.30;99.90
10459;DHT22;5277;48.722;8.736;2023-04-16T08:17:52;9.20;99.90
10459;DHT22;5277;48.722;8.736;2023-04-16T08:20:18;9.30;99.90
10459;DHT22;5277;48.722;8.736;2023-04-16T08:22:44;9.30;99.90
10459;DHT22;5277;48.722;8.736;2023-04-16T08:25:10;9.40;99.90
10459;DHT22;5277;48.722;8.736;2023-04-16T08:27:36;9.40;99.90
10459;DHT22;5277;48.722;8.736;2023-04-16T08:30:02;9.50;99.90
10459;DHT22;5277;48.722;8.736;2023-04-16T08:32:27;9.50;99.90
10459;DHT22;5277;48.722;8.736;2023-04-16T08:34:53;9.50;99.90
10459;DHT22;5277;48.722;8.736;2023-04-16T08:37:19;9.50;99.90
10459;DHT22;5277;48.722;8.736;2023-04-16T08:39:44;9.50;99.90
10459;DHT22;5277;48.722;8.736;2023-04-16T08:42:22;9.50;99.90
10459;DHT22;5277;48.722;8.736;2023-04-16T08:44:52;9.60;99.90
10459;DHT22;5277;48.722;8.736;2023-04-16T08:47:21;9.70;99.90
10459;DHT22;5277;48.722;8.736;2023-04-16T08:49:48;9.70;99.90
10459;DHT22;5277;48.722;8.736;2023-04-16T08:52:17;9.80;99.90
10459;DHT22;5277;48.722;8.736;2023-04-16T08:54:55;9.80;99.90
10459;DHT22;5277;48.722;8.736;2023-04-16T08:57:23;9.80;99.90
10459;DHT22;5277;48.722;8.736;2023-04-16T08:59:53;9.90;99.90
10459;DHT22;5277;48.722;8.736;2023-04-16T09:02:19;9.90;99.90
10459;DHT22;5277;48.722;8.736;2023-04-16T09:04:46;10.00;99.90
10459;DHT22;5277;48.722;8.736;2023-04-16T09:07:13;10.00;99.90
10459;DHT22;5277;48.722;8.736;2023-04-16T09:09:39;10.00;99.90
10459;DHT22;5277;48.722;8.736;2023-04-16T09:12:06;10.10;99.90
10459;DHT22;5277;48.722;8.736;2023-04-16T09:14:33;10.00;99.90
10459;DHT22;5277;48.722;8.736;2023-04-16T09:16:59;10.00;99.90
10459;DHT22;5277;48.722;8.736;2023-04-16T09:19:26;10.00;99.90
10459;DHT22;5277;48.722;8.736;2023-04-16T09:21:52;10.00;99.90
10459;DHT22;5277;48.722;8.736;2023-04-16T09:24:18;9.90;99.90
10459;DHT22;5277;48.722;8.736;2023-04-16T09:26:44;10.00;99.90
10459;DHT22;5277;48.722;8.736;2023-04-16T09:29:10;10.00;99.90
10459;DHT22;5277;48.722;8.736;2023-04-16T09:31:36;10.00;99.90
10459;DHT22;5277;48.722;8.736;2023-04-16T09:34:06;10.00;99.90
10459;DHT22;5277;48.722;8.736;2023-04-16T09:36:33;10.00;99.90
10459;DHT22;5277;48.722;8.736;2023-04-16T09:39:00;10.00;99.90
10459;DHT22;5277;48.722;8.736;2023-04-16T09:41:27;9.90;99.90
10459;DHT22;5277;48.722;8.736;2023-04-16T09:44:00;9.90;99.90
10459;DHT22;5277;48.722;8.736;2023-04-16T09:46:42;10.00;99.90
10459;DHT22;5277;48.722;8.736;2023-04-16T09:49:08;9.90;99.90
10459;DHT22;5277;48.722;8.736;2023-04-16T09:51:40;9.90;99.90
10459;DHT22;5277;48.722;8.736;2023-04-16T09:54:06;9.90;99.90
10459;DHT22;5277;48.722;8.736;2023-04-16T09:56:32;9.90;99.90
10459;DHT22;5277;48.722;8.736;2023-04-16T09:59:00;9.90;99.90
10459;DHT22;5277;48.722;8.736;2023-04-16T10:01:26;9.90;99.90
10459;DHT22;5277;48.722;8.736;2023-04-16T10:03:53;9.90;99.90
10459;DHT22;5277;48.722;8.736;2023-04-16T10:06:21;10.00;99.90
10459;DHT22;5277;48.722;8.736;2023-04-16T10:08:48;10.00;99.90
10459;DHT22;5277;48.722;8.736;2023-04-16T10:11:15;10.00;99.90
10459;DHT22;5277;48.722;8.736;2023-04-16T10:13:41;10.00;99.90
10459;DHT22;5277;48.722;8.736;2023-04-16T10:16:10;10.00;99.90
10459;DHT22;5277;48.722;8.736;2023-04-16T10:18:37;10.00;99.90
10459;DHT22;5277;48.722;8.736;2023-04-16T10:21:03;10.00;99.90
10459;DHT22;5277;48.722;8.736;2023-04-16T10:23:29;10.10;99.90
10459;DHT22;5277;48.722;8.736;2023-04-16T10:25:57;10.10;99.90
10459;DHT22;5277;48.722;8.736;2023-04-16T10:28:23;10.00;99.90
10459;DHT22;5277;48.722;8.736;2023-04-16T10:30:51;10.10;99.90
10459;DHT22;5277;48.722;8.736;2023-04-16T10:33:28;10.10;99.90
10459;DHT22;5277;48.722;8.736;2023-04-16T10:36:08;10.10;99.90
10459;DHT22;5277;48.722;8.736;2023-04-16T10:38:38;10.10;99.90
10459;DHT22;5277;48.722;8.736;2023-04-16T10:41:05;10.00;99.90
10459;DHT22;5277;48.722;8.736;2023-04-16T10:43:35;10.10;99.90
10459;DHT22;5277;48.722;8.736;2023-04-16T10:48:47;10.10;99.90
10459;DHT22;5277;48.722;8.736;2023-04-16T10:53:53;10.00;99.90
10459;DHT22;5277;48.722;8.736;2023-04-16T10:56:26;10.00;99.90
10459;DHT22;5277;48.722;8.736;2023-04-16T10:58:55;10.00;99.90
10459;DHT22;5277;48.722;8.736;2023-04-16T11:01:29;10.10;99.90
10459;DHT22;5277;48.722;8.736;2023-04-16T11:03:56;10.10;99.90
10459;DHT22;5277;48.722;8.736;2023-04-16T11:06:26;10.20;99.90
10459;DHT22;5277;48.722;8.736;2023-04-16T11:08:52;10.10;99.90
10459;DHT22;5277;48.722;8.736;2023-04-16T11:11:18;10.10;99.90
10459;DHT22;5277;48.722;8.736;2023-04-16T11:13:44;10.20;99.90
10459;DHT22;5277;48.722;8.736;2023-04-16T11:16:12;10.20;99.90
10459;DHT22;5277;48.722;8.736;2023-04-16T11:18:38;10.20;99.90
10459;DHT22;5277;48.722;8.736;2023-04-16T11:21:09;10.20;99.90
10459;DHT22;5277;48.722;8.736;2023-04-16T11:23:49;10.20;99.90
10459;DHT22;5277;48.722;8.736;2023-04-16T11:26:26;10.30;99.90
10459;DHT22;5277;48.722;8.736;2023-04-16T11:28:53;10.30;99.90
10459;DHT22;5277;48.722;8.736;2023-04-16T11:31:20;10.40;99.90
10459;DHT22;5277;48.722;8.736;2023-04-16T11:33:45;10.40;99.90
10459;DHT22;5277;48.722;8.736;2023-04-16T11:36:11;10.40;99.90
10459;DHT22;5277;48.722;8.736;2023-04-16T11:38:37;10.40;99.90
10459;DHT22;5277;48.722;8.736;2023-04-16T11:41:05;10.40;99.90
10459;DHT22;5277;48.722;8.736;2023-04-16T11:43:31;10.50;99.90
10459;DHT22;5277;48.722;8.736;2023-04-16T11:46:03;10.50;99.90
10459;DHT22;5277;48.722;8.736;2023-04-16T11:48:49;10.50;99.90
10459;DHT22;5277;48.722;8.736;2023-04-16T11:51:15;10.60;99.90
10459;DHT22;5277;48.722;8.736;2023-04-16T11:53:59;10.60;99.90
10459;DHT22;5277;48.722;8.736;2023-04-16T11:56:29;10.50;99.90
10459;DHT22;5277;48.722;8.736;2023-04-16T11:59:11;10.60;99.90
10459;DHT22;5277;48.722;8.736;2023-04-16T12:01:38;10.50;99.90
10459;DHT22;5277;48.722;8.736;2023-04-16T12:04:04;10.60;99.90
10459;DHT22;5277;48.722;8.736;2023-04-16T12:06:30;10.70;99.90
10459;DHT22;5277;48.722;8.736;2023-04-16T12:08:57;10.70;99.90
10459;DHT22;5277;48.722;8.736;2023-04-16T12:11:39;10.70;99.90
10459;DHT22;5277;48.722;8.736;2023-04-16T12:14:10;10.80;99.90
10459;DHT22;5277;48.722;8.736;2023-04-16T12:16:36;10.80;99.90
10459;DHT22;5277;48.722;8.736;2023-04-16T12:19:03;10.80;99.90
10459;DHT22;5277;48.722;8.736;2023-04-16T12:21:43;10.80;99.90
10459;DHT22;5277;48.722;8.736;2023-04-16T12:24:10;10.80;99.90
10459;DHT22;5277;48.722;8.736;2023-04-16T12:26:41;10.90;99.90
10459;DHT22;5277;48.722;8.736;2023-04-16T12:29:21;10.90;99.90
10459;DHT22;5277;48.722;8.736;2023-04-16T12:31:51;10.90;99.90
10459;DHT22;5277;48.722;8.736;2023-04-16T12:34:18;10.90;99.90
10459;DHT22;5277;48.722;8.736;2023-04-16T12:36:45;10.90;99.90
10459;DHT22;5277;48.722;8.736;2023-04-16T12:39:12;10.90;99.90
10459;DHT22;5277;48.722;8.736;2023-04-16T12:41:39;10.90;99.90
10459;DHT22;5277;48.722;8.736;2023-04-16T12:44:10;10.90;99.90
10459;DHT22;5277;48.722;8.736;2023-04-16T12:46:40;10.80;99.90
10459;DHT22;5277;48.722;8.736;2023-04-16T12:49:07;10.70;99.90
10459;DHT22;5277;48.722;8.736;2023-04-16T12:51:33;10.70;99.90
10459;DHT22;5277;48.722;8.736;2023-04-16T12:54:00;10.60;99.90
10459;DHT22;5277;48.722;8.736;2023-04-16T12:56:26;10.60;99.90
10459;DHT22;5277;48.722;8.736;2023-04-16T12:58:52;10.70;99.90
10459;DHT22;5277;48.722;8.736;2023-04-16T13:01:21;10.70;99.90
10459;DHT22;5277;48.722;8.736;2023-04-16T13:03:47;10.70;99.90
10459;DHT22;5277;48.722;8.736;2023-04-16T13:06:14;10.70;99.90
10459;DHT22;5277;48.722;8.736;2023-04-16T13:08:42;10.70;99.90
10459;DHT22;5277;48.722;8.736;2023-04-16T13:11:08;10.70;99.90
10459;DHT22;5277;48.722;8.736;2023-04-16T13:13:33;10.80;99.90
10459;DHT22;5277;48.722;8.736;2023-04-16T13:15:59;10.80;99.90
10459;DHT22;5277;48.722;8.736;2023-04-16T13:18:25;10.80;99.90
10459;DHT22;5277;48.722;8.736;2023-04-16T13:20:52;10.80;99.90
10459;DHT22;5277;48.722;8.736;2023-04-16T13:23:20;10.90;99.90
10459;DHT22;5277;48.722;8.736;2023-04-16T13:25:46;10.90;99.90
10459;DHT22;5277;48.722;8.736;2023-04-16T13:28:11;10.90;99.90
10459;DHT22;5277;48.722;8.736;2023-04-16T13:30:37;10.80;99.90
10459;DHT22;5277;48.722;8.736;2023-04-16T13:33:02;10.80;99.90
10459;DHT22;5277;48.722;8.736;2023-04-16T13:35:29;10.80;99.90
10459;DHT22;5277;48.722;8.736;2023-04-16T13:37:55;10.90;99.90
10459;DHT22;5277;48.722;8.736;2023-04-16T13:40:20;10.90;99.90
10459;DHT22;5277;48.722;8.736;2023-04-16T13:42:46;10.90;99.90
10459;DHT22;5277;48.722;8.736;2023-04-16T13:45:11;10.90;99.90
10459;DHT22;5277;48.722;8.736;2023-04-16T13:47:39;10.90;99.90
10459;DHT22;5277;48.722;8.736;2023-04-16T13:50:06;10.80;99.90
10459;DHT22;5277;48.722;8.736;2023-04-16T13:52:31;10.80;99.90
10459;DHT22;5277;48.722;8.736;2023-04-16T13:54:57;10.80;99.90
10459;DHT22;5277;48.722;8.736;2023-04-16T13:57:23;10.90;99.90
10459;DHT22;5277;48.722;8.736;2023-04-16T13:59:48;10.80;99.90
10459;DHT22;5277;48.722;8.736;2023-04-16T14:02:14;10.80;99.90
10459;DHT22;5277;48.722;8.736;2023-04-16T14:04:39;10.90;99.90
10459;DHT22;5277;48.722;8.736;2023-04-16T14:07:05;10.90;99.90
10459;DHT22;5277;48.722;8.736;2023-04-16T14:09:31;10.90;99.90
10459;DHT22;5277;48.722;8.736;2023-04-16T14:11:56;10.90;99.90
10459;DHT22;5277;48.722;8.736;2023-04-16T14:14:22;11.00;99.90
10459;DHT22;5277;48.722;8.736;2023-04-16T14:16:48;10.90;99.90
10459;DHT22;5277;48.722;8.736;2023-04-16T14:19:14;10.90;99.90
10459;DHT22;5277;48.722;8.736;2023-04-16T14:21:40;11.00;99.90
10459;DHT22;5277;48.722;8.736;2023-04-16T14:24:06;11.10;99.90
10459;DHT22;5277;48.722;8.736;2023-04-16T14:26:33;11.10;99.90
10459;DHT22;5277;48.722;8.736;2023-04-16T14:28:59;11.10;99.90
10459;DHT22;5277;48.722;8.736;2023-04-16T14:31:25;11.00;99.90
10459;DHT22;5277;48.722;8.736;2023-04-16T14:33:51;11.00;99.90
10459;DHT22;5277;48.722;8.736;2023-04-16T14:36:17;11.10;99.90
10459;DHT22;5277;48.722;8.736;2023-04-16T14:38:42;11.10;99.90
10459;DHT22;5277;48.722;8.736;2023-04-16T14:41:08;11.10;99.90
10459;DHT22;5277;48.722;8.736;2023-04-16T14:43:35;11.10;99.90
10459;DHT22;5277;48.722;8.736;2023-04-16T14:46:00;11.10;99.90
10459;DHT22;5277;48.722;8.736;2023-04-16T14:48:27;11.10;99.90
10459;DHT22;5277;48.722;8.736;2023-04-16T14:50:53;11.00;99.90
10459;DHT22;5277;48.722;8.736;2023-04-16T14:53:19;11.00;99.90
10459;DHT22;5277;48.722;8.736;2023-04-16T14:55:44;10.90;99.90
10459;DHT22;5277;48.722;8.736;2023-04-16T14:58:10;10.90;99.90
10459;DHT22;5277;48.722;8.736;2023-04-16T15:00:36;10.90;99.90
10459;DHT22;5277;48.722;8.736;2023-04-16T15:03:01;10.90;99.90
10459;DHT22;5277;48.722;8.736;2023-04-16T15:05:28;10.80;99.90
10459;DHT22;5277;48.722;8.736;2023-04-16T15:07:54;10.80;99.90
10459;DHT22;5277;48.722;8.736;2023-04-16T15:10:20;10.90;99.90
10459;DHT22;5277;48.722;8.736;2023-04-16T15:12:46;10.90;99.90
10459;DHT22;5277;48.722;8.736;2023-04-16T15:15:11;10.90;99.90
10459;DHT22;5277;48.722;8.736;2023-04-16T15:17:37;10.90;99.90
10459;DHT22;5277;48.722;8.736;2023-04-16T15:20:03;10.90;99.90
10459;DHT22;5277;48.722;8.736;2023-04-16T15:22:33;10.90;99.90
10459;DHT22;5277;48.722;8.736;2023-04-16T15:24:58;10.90;99.90
10459;DHT22;5277;48.722;8.736;2023-04-16T15:27:24;10.90;99.90
10459;DHT22;5277;48.722;8.736;2023-04-16T15:29:50;10.90;99.90
10459;DHT22;5277;48.722;8.736;2023-04-16T15:32:17;10.90;99.90
10459;DHT22;5277;48.722;8.736;2023-04-16T15:34:43;10.90;99.90
10459;DHT22;5277;48.722;8.736;2023-04-16T15:37:08;10.90;99.90
10459;DHT22;5277;48.722;8.736;2023-04-16T15:39:34;10.90;99.90
10459;DHT22;5277;48.722;8.736;2023-04-16T15:42:00;10.90;99.90
10459;DHT22;5277;48.722;8.736;2023-04-16T15:44:25;10.90;99.90
10459;DHT22;5277;48.722;8.736;2023-04-16T15:46:51;10.90;99.90
10459;DHT22;5277;48.722;8.736;2023-04-16T15:49:17;10.80;99.90
10459;DHT22;5277;48.722;8.736;2023-04-16T15:51:42;10.80;99.90
10459;DHT22;5277;48.722;8.736;2023-04-16T15:54:08;10.80;99.90
10459;DHT22;5277;48.722;8.736;2023-04-16T15:56:33;10.80;99.90